createdAt,value
2022-08-14T00:02:08.249Z,24.02
2022-08-14T00:04:42.200Z,23.82
2022-08-14T00:07:15.128Z,23.67
2022-08-14T00:09:56.009Z,24.91
2022-08-14T00:12:37.912Z,23.75
2022-08-14T00:15:16.013Z,23.55
2022-08-14T00:17:48.417Z,23.42
2022-08-14T00:20:30.795Z,23.45
2022-08-14T00:23:16.276Z,23.49
2022-08-14T00:25:59.067Z,23.45
2022-08-14T00:28:37.504Z,23.28
2022-08-14T00:31:10.190Z,23.30
2022-08-14T00:33:52.272Z,23.28
2022-08-14T00:36:36.359Z,23.25
2022-08-14T00:39:18.566Z,23.03
2022-08-14T00:41:48.996Z,23.15
2022-08-14T00:44:21.355Z,23.31
2022-08-14T00:46:59.956Z,23.23
2022-08-14T00:49:37.908Z,23.19
2022-08-14T00:52:08.553Z,23.19
2022-08-14T00:54:38.919Z,23.20
2022-08-14T00:57:10.203Z,22.96
2022-08-14T00:59:41.466Z,22.92
2022-08-14T01:02:15.458Z,22.86
2022-08-14T01:04:53.961Z,22.47
2022-08-14T01:07:27.358Z,22.41
2022-08-14T01:10:01.368Z,22.40
2022-08-14T01:12:32.777Z,22.23
2022-08-14T01:15:04.682Z,22.36
2022-08-14T01:17:54.165Z,22.35
2022-08-14T01:20:39.759Z,22.51
2022-08-14T01:23:18.843Z,22.28
2022-08-14T01:25:51.866Z,22.39
2022-08-14T01:28:46.248Z,22.26
2022-08-14T01:31:15.617Z,22.42
2022-08-14T01:34:00.035Z,22.33
2022-08-14T01:36:39.785Z,22.43
2022-08-14T01:39:14.648Z,22.20
2022-08-14T01:41:46.821Z,22.41
2022-08-14T01:44:32.182Z,22.33
2022-08-14T01:47:11.687Z,22.36
2022-08-14T01:49:46.412Z,22.30
2022-08-14T01:52:59.384Z,22.45
2022-08-14T01:55:32.220Z,22.39
2022-08-14T01:58:19.457Z,22.41
2022-08-14T02:00:55.704Z,22.44
2022-08-14T02:03:30.010Z,22.38
2022-08-14T02:06:03.801Z,22.37
2022-08-14T02:08:53.323Z,22.26
2022-08-14T02:11:29.012Z,22.23
2022-08-14T02:14:06.782Z,22.04
2022-08-14T02:16:39.575Z,22.21
2022-08-14T02:19:12.374Z,22.13
2022-08-14T02:21:43.437Z,22.31
2022-08-14T02:24:40.102Z,22.31
2022-08-14T02:28:25.369Z,22.32
2022-08-14T02:30:00.092Z,22.18
2022-08-14T02:32:36.756Z,22.32
2022-08-14T02:35:19.112Z,22.20
2022-08-14T02:37:52.741Z,21.95
2022-08-14T02:40:32.500Z,21.91
2022-08-14T02:43:07.965Z,21.97
2022-08-14T02:45:44.248Z,21.81
2022-08-14T02:49:03.089Z,21.82
2022-08-14T02:51:09.132Z,21.91
2022-08-14T02:53:42.352Z,22.00
2022-08-14T02:56:30.411Z,21.97
2022-08-14T02:59:09.526Z,22.14
2022-08-14T03:01:50.317Z,21.92
2022-08-14T03:04:20.883Z,21.86
2022-08-14T03:06:57.769Z,21.92
2022-08-14T03:10:27.040Z,21.88
2022-08-14T03:12:31.145Z,22.19
2022-08-14T03:15:14.166Z,22.31
2022-08-14T03:17:56.846Z,22.26
2022-08-14T03:20:28.826Z,22.24
2022-08-14T03:23:00.320Z,22.25
2022-08-14T03:25:37.567Z,22.13
2022-08-14T03:28:14.737Z,22.08
2022-08-14T03:31:01.490Z,21.81
2022-08-14T03:33:37.370Z,21.59
2022-08-14T03:37:37.814Z,21.83
2022-08-14T03:39:14.737Z,21.80
2022-08-14T03:41:52.563Z,21.71
2022-08-14T03:45:19.679Z,21.63
2022-08-14T03:47:15.181Z,21.44
2022-08-14T03:49:49.902Z,21.43
2022-08-14T03:52:55.634Z,21.58
2022-08-14T03:55:13.646Z,21.55
2022-08-14T03:57:44.151Z,21.73
2022-08-14T04:00:44.244Z,21.57
2022-08-14T04:03:16.489Z,21.62
2022-08-14T04:05:49.544Z,21.67
2022-08-14T04:08:29.258Z,21.59
2022-08-14T04:11:02.917Z,21.35
2022-08-14T04:13:39.483Z,21.33
2022-08-14T04:16:13.172Z,21.06
2022-08-14T04:18:47.219Z,21.12
2022-08-14T04:21:19.259Z,21.35
2022-08-14T04:23:57.027Z,21.40
2022-08-14T04:26:42.276Z,21.42
2022-08-14T04:29:16.045Z,21.32
2022-08-14T04:32:58.578Z,21.19
2022-08-14T04:34:42.046Z,21.04
2022-08-14T04:37:24.854Z,21.28
2022-08-14T04:40:09.350Z,21.33
2022-08-14T04:42:53.331Z,21.35
2022-08-14T04:45:25.252Z,21.26
2022-08-14T04:48:12.484Z,21.29
2022-08-14T04:50:49.151Z,21.16
2022-08-14T04:53:34.862Z,21.33
2022-08-14T04:56:10.676Z,21.56
2022-08-14T04:59:02.288Z,21.66
2022-08-14T05:01:39.718Z,21.78
2022-08-14T05:04:14.615Z,21.83
2022-08-14T05:06:49.151Z,21.56
2022-08-14T05:09:19.310Z,21.86
2022-08-14T05:11:51.768Z,21.99
2022-08-14T05:14:46.641Z,21.68
2022-08-14T05:17:13.134Z,22.07
2022-08-14T05:19:44.262Z,22.18
2022-08-14T05:22:35.628Z,22.10
2022-08-14T05:25:07.910Z,22.21
2022-08-14T05:27:37.610Z,21.86
2022-08-14T05:30:09.308Z,22.24
2022-08-14T05:32:39.827Z,22.26
2022-08-14T05:35:11.809Z,22.33
2022-08-14T05:37:46.987Z,22.41
2022-08-14T05:40:16.654Z,22.38
2022-08-14T05:42:52.775Z,22.51
2022-08-14T05:45:22.780Z,22.47
2022-08-14T05:47:55.209Z,22.40
2022-08-14T05:50:24.888Z,22.55
2022-08-14T05:53:01.533Z,22.71
2022-08-14T05:55:31.175Z,22.74
2022-08-14T05:58:03.222Z,22.68
2022-08-14T06:00:38.716Z,22.53
2022-08-14T06:03:11.643Z,22.50
2022-08-14T06:05:41.797Z,22.58
2022-08-14T06:08:36.136Z,22.87
2022-08-14T06:11:14.859Z,22.81
2022-08-14T06:13:50.267Z,22.97
2022-08-14T06:16:21.799Z,22.64
2022-08-14T06:18:53.271Z,22.83
2022-08-14T06:21:24.273Z,23.08
2022-08-14T06:23:56.538Z,24.03
2022-08-14T06:26:30.511Z,23.93
2022-08-14T06:29:00.644Z,24.10
2022-08-14T06:31:30.898Z,24.46
2022-08-14T06:35:11.236Z,24.65
2022-08-14T06:36:50.383Z,25.02
2022-08-14T06:39:37.454Z,25.61
2022-08-14T06:42:07.950Z,26.06
2022-08-14T06:44:57.867Z,26.56
2022-08-14T06:47:28.163Z,26.63
2022-08-14T06:49:58.642Z,26.91
2022-08-14T06:52:29.375Z,27.13
2022-08-14T06:55:02.000Z,27.48
2022-08-14T06:57:39.242Z,27.59
2022-08-14T07:00:22.231Z,27.49
2022-08-14T07:03:12.267Z,27.03
2022-08-14T07:05:55.468Z,26.75
2022-08-14T07:08:31.399Z,26.48
2022-08-14T07:11:05.545Z,26.45
2022-08-14T07:13:35.241Z,26.58
2022-08-14T07:16:05.934Z,26.19
2022-08-14T07:18:40.696Z,26.70
2022-08-14T07:21:12.133Z,26.69
2022-08-14T07:23:44.256Z,26.81
2022-08-14T07:26:17.056Z,26.73
2022-08-14T07:28:47.514Z,26.95
2022-08-14T07:31:17.698Z,26.86
2022-08-14T07:33:50.850Z,26.78
2022-08-14T07:36:27.059Z,26.81
2022-08-14T07:39:00.750Z,27.06
2022-08-14T07:41:35.872Z,27.22
2022-08-14T07:44:32.625Z,27.36
2022-08-14T07:46:55.869Z,27.18
2022-08-14T07:49:25.657Z,27.49
2022-08-14T07:51:55.493Z,27.06
2022-08-14T07:54:30.269Z,27.52
2022-08-14T07:57:11.818Z,27.71
2022-08-14T07:59:44.541Z,27.82
2022-08-14T08:02:20.398Z,27.82
2022-08-14T08:04:58.983Z,27.80
2022-08-14T08:07:33.647Z,27.94
2022-08-14T08:10:31.383Z,28.03
2022-08-14T08:13:24.099Z,27.92
2022-08-14T08:15:56.707Z,28.04
2022-08-14T08:18:31.060Z,28.04
2022-08-14T08:21:01.204Z,28.24
2022-08-14T08:23:40.917Z,28.38
2022-08-14T08:26:20.718Z,28.46
2022-08-14T08:29:01.754Z,28.43
2022-08-14T08:31:34.927Z,28.55
2022-08-14T08:34:14.332Z,28.36
2022-08-14T08:36:48.258Z,28.42
2022-08-14T08:39:30.828Z,28.27
2022-08-14T08:42:09.070Z,28.11
2022-08-14T08:44:42.854Z,28.12
2022-08-14T08:47:13.080Z,27.99
2022-08-14T08:49:52.846Z,28.30
2022-08-14T08:52:31.234Z,28.55
2022-08-14T08:55:04.982Z,28.72
2022-08-14T08:57:38.138Z,28.87
2022-08-14T09:00:25.867Z,28.82
2022-08-14T09:03:03.321Z,28.98
2022-08-14T09:05:35.336Z,28.87
2022-08-14T09:08:30.248Z,28.97
2022-08-14T09:11:02.625Z,28.93
2022-08-14T09:13:51.014Z,29.00
2022-08-14T09:16:26.981Z,28.52
2022-08-14T09:18:57.064Z,28.89
2022-08-14T09:21:31.645Z,29.13
2022-08-14T09:24:29.099Z,29.21
2022-08-14T09:26:53.067Z,29.50
2022-08-14T09:29:24.350Z,29.50
2022-08-14T09:32:26.879Z,29.34
2022-08-14T09:35:08.544Z,29.31
2022-08-14T09:37:48.489Z,29.38
2022-08-14T09:40:31.060Z,29.27
2022-08-14T09:43:10.353Z,29.43
2022-08-14T09:45:53.002Z,29.21
2022-08-14T09:48:30.966Z,29.65
2022-08-14T09:54:19.239Z,29.40
2022-08-14T09:56:36.672Z,29.68
2022-08-14T09:59:16.703Z,29.53
2022-08-14T10:01:52.944Z,29.57
2022-08-14T10:04:34.573Z,29.90
2022-08-14T10:07:08.429Z,29.68
2022-08-14T10:09:59.848Z,29.82
2022-08-14T10:12:48.616Z,30.03
2022-08-14T10:15:25.319Z,30.10
2022-08-14T10:18:17.700Z,30.17
2022-08-14T10:21:00.969Z,30.31
2022-08-14T10:23:46.665Z,30.39
2022-08-14T10:26:22.701Z,30.45
2022-08-14T10:29:19.391Z,30.23
2022-08-14T10:32:01.913Z,30.11
2022-08-14T10:34:40.921Z,30.77
2022-08-14T10:37:17.594Z,30.44
2022-08-14T10:40:10.480Z,30.55
2022-08-14T10:42:44.091Z,30.83
2022-08-14T10:45:22.333Z,30.29
2022-08-14T10:48:07.637Z,30.68
2022-08-14T10:50:46.343Z,30.70
2022-08-14T10:53:19.973Z,30.78
2022-08-14T10:55:50.463Z,30.91
2022-08-14T10:58:34.414Z,30.74
2022-08-14T11:01:15.341Z,30.54
2022-08-14T11:03:55.894Z,30.42
2022-08-14T11:06:29.410Z,30.51
2022-08-14T11:09:02.676Z,30.69
2022-08-14T11:11:37.349Z,30.86
2022-08-14T11:14:09.347Z,30.62
2022-08-14T11:16:53.447Z,30.96
2022-08-14T11:19:35.351Z,30.57
2022-08-14T11:22:09.559Z,31.00
2022-08-14T11:24:57.627Z,30.79
2022-08-14T11:27:42.189Z,30.77
2022-08-14T11:30:50.343Z,30.96
2022-08-14T11:33:32.498Z,31.33
2022-08-14T11:36:17.768Z,31.08
2022-08-14T11:38:51.491Z,31.16
2022-08-14T11:41:30.738Z,31.09
2022-08-14T11:44:17.688Z,31.71
2022-08-14T11:47:06.867Z,31.44
2022-08-14T11:49:47.551Z,31.35
2022-08-14T11:52:26.418Z,31.82
2022-08-14T11:55:01.594Z,31.70
2022-08-14T11:57:42.182Z,31.37
2022-08-14T12:00:19.587Z,31.40
2022-08-14T12:03:03.234Z,31.92
2022-08-14T12:05:50.564Z,31.75
2022-08-14T12:08:30.021Z,31.62
2022-08-14T12:14:57.204Z,32.04
2022-08-14T12:17:30.067Z,31.74
2022-08-14T12:24:36.122Z,31.17
2022-08-14T12:31:22.265Z,32.08
2022-08-14T12:34:02.015Z,32.25
2022-08-14T12:36:44.038Z,31.84
2022-08-14T12:39:27.765Z,31.81
2022-08-14T12:42:07.326Z,32.00
2022-08-14T12:44:42.905Z,32.21
2022-08-14T12:47:21.380Z,31.95
2022-08-14T12:49:59.309Z,31.92
2022-08-14T12:52:47.359Z,32.45
2022-08-14T12:58:52.504Z,32.96
2022-08-14T13:01:31.205Z,32.65
2022-08-14T13:04:16.990Z,32.60
2022-08-14T13:06:54.837Z,32.76
2022-08-14T13:09:36.481Z,32.39
2022-08-14T13:12:33.235Z,32.35
2022-08-14T13:15:09.043Z,32.54
2022-08-14T13:17:51.224Z,32.65
2022-08-14T13:36:54.194Z,32.86
2022-08-14T14:46:36.463Z,31.69
2022-08-14T14:49:55.672Z,31.88
2022-08-14T14:53:31.199Z,31.96
2022-08-14T14:58:26.317Z,30.34
2022-08-14T15:51:31.381Z,31.34
2022-08-14T16:50:51.171Z,32.36
2022-08-14T16:53:20.849Z,32.05
2022-08-14T16:56:22.990Z,32.00
2022-08-14T16:59:07.342Z,31.80
2022-08-14T17:01:40.518Z,31.82
2022-08-14T17:04:14.874Z,31.85
2022-08-14T17:06:59.182Z,31.90
2022-08-14T17:09:43.337Z,31.74
2022-08-14T17:12:33.526Z,31.71
2022-08-14T17:15:10.045Z,31.68
2022-08-14T17:17:57.812Z,31.65
2022-08-14T17:20:39.744Z,31.59
2022-08-14T17:23:29.744Z,31.53
2022-08-14T17:26:00.296Z,31.61
2022-08-14T17:28:51.740Z,31.66
2022-08-14T17:31:20.942Z,31.66
2022-08-14T17:33:53.005Z,31.52
2022-08-14T17:36:26.835Z,31.39
2022-08-14T17:39:06.650Z,31.66
2022-08-14T17:41:43.839Z,31.32
2022-08-14T17:44:34.265Z,31.29
2022-08-14T17:47:17.794Z,31.25
2022-08-14T17:49:55.547Z,31.61
2022-08-14T17:52:34.698Z,31.20
2022-08-14T17:56:00.912Z,31.43
2022-08-14T17:58:20.501Z,31.56
2022-08-14T18:00:57.835Z,31.16
2022-08-14T18:03:51.115Z,31.15
2022-08-14T18:06:39.903Z,31.06
2022-08-14T18:09:25.220Z,31.09
2022-08-14T18:12:05.752Z,31.16
2022-08-14T18:14:48.807Z,30.86
2022-08-14T18:17:23.817Z,30.89
2022-08-14T18:19:54.140Z,30.88
2022-08-14T18:22:32.357Z,30.96
2022-08-14T18:25:18.036Z,31.20
2022-08-14T18:27:53.198Z,31.14
2022-08-14T18:30:33.272Z,31.09
2022-08-14T18:33:20.981Z,31.03
2022-08-14T18:35:59.025Z,30.92
2022-08-14T18:38:42.910Z,30.97
2022-08-14T18:41:36.267Z,30.88
2022-08-14T18:44:11.090Z,30.83
2022-08-14T18:47:15.035Z,30.81
2022-08-14T18:50:26.074Z,30.83
2022-08-14T18:53:07.678Z,30.76
2022-08-14T18:55:53.728Z,30.76
2022-08-14T18:58:31.139Z,30.69
2022-08-14T19:01:06.180Z,30.66
2022-08-14T19:04:00.397Z,30.46
2022-08-14T19:06:46.351Z,30.36
2022-08-14T19:09:51.249Z,30.47
2022-08-14T19:12:52.246Z,30.47
2022-08-14T19:15:25.781Z,30.38
2022-08-14T19:18:13.914Z,30.41
2022-08-14T19:20:52.971Z,30.24
2022-08-14T19:23:43.896Z,30.35
2022-08-14T19:26:35.578Z,30.17
2022-08-14T19:29:26.127Z,30.19
2022-08-14T19:32:09.358Z,30.25
2022-08-14T19:34:48.016Z,30.05
2022-08-14T19:37:47.823Z,30.09
2022-08-14T19:40:33.907Z,30.08
2022-08-14T19:43:08.891Z,30.02
2022-08-14T19:45:40.865Z,29.73
2022-08-14T19:48:16.098Z,30.03
2022-08-14T19:50:48.854Z,29.98
2022-08-14T19:53:19.015Z,29.90
2022-08-14T19:56:02.149Z,29.87
2022-08-14T19:58:55.212Z,29.72
2022-08-14T20:01:37.013Z,29.46
2022-08-14T20:04:45.159Z,29.41
2022-08-14T20:07:04.358Z,29.31
2022-08-14T20:11:12.351Z,29.35
2022-08-14T20:12:36.180Z,29.19
2022-08-14T20:15:47.019Z,29.37
2022-08-14T20:18:46.010Z,29.30
2022-08-14T20:21:07.772Z,29.34
2022-08-14T20:23:41.350Z,29.33
2022-08-14T20:26:31.246Z,29.32
2022-08-14T20:29:05.146Z,29.18
2022-08-14T20:31:38.561Z,29.13
2022-08-14T20:34:24.444Z,29.29
2022-08-14T20:37:09.981Z,29.25
2022-08-14T20:39:54.895Z,29.24
2022-08-14T20:42:38.943Z,29.10
2022-08-14T20:45:24.860Z,28.91
2022-08-14T20:48:01.222Z,29.01
2022-08-14T20:50:32.745Z,28.96
2022-08-14T20:53:05.621Z,29.05
2022-08-14T20:55:45.183Z,28.99
2022-08-14T20:58:38.713Z,28.81
2022-08-14T21:01:39.885Z,28.89
2022-08-14T21:04:26.508Z,28.87
2022-08-14T21:07:25.489Z,28.68
2022-08-14T21:10:06.460Z,28.70
2022-08-14T21:13:26.725Z,28.59
2022-08-14T21:15:32.098Z,28.75
2022-08-14T21:18:05.397Z,28.79
2022-08-14T21:20:36.925Z,28.66
2022-08-14T21:23:07.719Z,28.49
2022-08-14T21:25:38.307Z,28.43
2022-08-14T21:28:29.952Z,28.42
2022-08-14T21:31:00.679Z,28.32
2022-08-14T21:33:34.339Z,28.42
2022-08-14T21:36:08.041Z,28.41
2022-08-14T21:38:39.294Z,28.33
2022-08-14T21:41:41.364Z,28.38
2022-08-14T21:44:18.259Z,28.42
2022-08-14T21:46:53.344Z,28.50
2022-08-14T21:49:38.254Z,28.34
2022-08-14T21:52:50.350Z,28.61
2022-08-14T21:55:09.161Z,28.47
2022-08-14T21:58:44.465Z,28.58
2022-08-14T22:00:39.746Z,28.44
2022-08-14T22:03:17.399Z,28.52
2022-08-14T22:05:52.776Z,28.67
2022-08-14T22:08:27.030Z,28.71
2022-08-14T22:10:59.119Z,28.71
2022-08-14T22:13:32.552Z,28.63
2022-08-14T22:16:02.770Z,28.49
2022-08-14T22:18:33.579Z,28.64
2022-08-14T22:21:08.076Z,28.63
2022-08-14T22:23:46.379Z,28.61
2022-08-14T22:26:22.102Z,28.58
2022-08-14T22:28:55.567Z,28.55
2022-08-14T22:31:35.030Z,28.53
2022-08-14T22:34:06.633Z,28.51
2022-08-14T22:36:51.267Z,28.46
2022-08-14T22:40:17.699Z,28.39
2022-08-14T22:42:21.522Z,28.28
2022-08-14T22:44:56.810Z,28.28
2022-08-14T22:47:40.350Z,28.34
2022-08-14T22:50:30.669Z,28.28
2022-08-14T22:53:06.754Z,28.29
2022-08-14T22:55:36.821Z,28.34
2022-08-14T22:58:06.917Z,28.10
2022-08-14T23:00:37.476Z,28.04
2022-08-14T23:03:17.363Z,28.05
2022-08-14T23:05:52.530Z,28.01
2022-08-14T23:08:59.490Z,27.71
2022-08-14T23:11:15.435Z,28.03
2022-08-14T23:13:46.454Z,28.01
2022-08-14T23:16:20.029Z,28.14
2022-08-14T23:18:54.218Z,28.32
2022-08-14T23:21:28.873Z,28.31
2022-08-14T23:24:03.122Z,28.21
2022-08-14T23:26:48.209Z,28.32
2022-08-14T23:29:21.353Z,28.19
2022-08-14T23:31:51.695Z,28.11
2022-08-14T23:34:23.988Z,28.25
2022-08-14T23:36:57.264Z,28.06
2022-08-14T23:39:32.878Z,28.04
2022-08-14T23:42:06.267Z,27.89
2022-08-14T23:44:39.184Z,27.98
2022-08-14T23:47:25.611Z,27.72
2022-08-14T23:50:03.392Z,27.76
2022-08-14T23:52:55.609Z,27.62
2022-08-14T23:55:34.719Z,27.81
2022-08-14T23:58:04.490Z,27.62
